createdAt,value
2022-09-20T00:04:49.803Z,5.37
2022-09-20T00:09:53.255Z,7.30
2022-09-20T00:14:56.815Z,6.47
2022-09-20T00:19:58.485Z,9.70
2022-09-20T00:25:00.217Z,13.77
2022-09-20T00:30:01.881Z,4.47
2022-09-20T00:35:10.895Z,3.53
2022-09-20T00:40:14.958Z,8.00
2022-09-20T00:45:24.313Z,10.60
2022-09-20T00:50:40.499Z,7.83
2022-09-20T00:55:45.538Z,4.07
2022-09-20T01:00:47.191Z,5.37
2022-09-20T01:05:50.261Z,4.17
2022-09-20T01:10:52.421Z,9.73
2022-09-20T01:15:54.082Z,6.30
2022-09-20T01:20:55.715Z,5.60
2022-09-20T01:26:25.753Z,12.23
2022-09-20T01:31:36.716Z,10.40
2022-09-20T01:36:44.145Z,7.20
2022-09-20T01:41:48.938Z,9.53
2022-09-20T01:46:53.089Z,3.83
2022-09-20T01:52:15.690Z,13.47
2022-09-20T01:57:41.044Z,11.67
2022-09-20T02:02:49.836Z,15.47
2022-09-20T02:08:07.568Z,11.63
2022-09-20T02:13:31.609Z,10.23
2022-09-20T02:18:56.865Z,12.10
2022-09-20T02:24:43.767Z,11.97
2022-09-20T02:29:51.478Z,17.73
2022-09-20T02:35:17.104Z,13.03
2022-09-20T02:40:45.586Z,16.13
2022-09-20T02:46:00.225Z,12.80
2022-09-20T02:51:12.407Z,26.57
2022-09-20T02:56:35.737Z,19.60
2022-09-20T03:01:56.309Z,15.50
2022-09-20T03:07:06.081Z,19.50
2022-09-20T03:12:18.289Z,21.70
2022-09-20T03:17:28.815Z,12.20
2022-09-20T03:22:48.803Z,34.67
2022-09-20T03:28:24.298Z,20.47
2022-09-20T03:33:50.831Z,11.83
2022-09-20T03:39:11.288Z,22.27
2022-09-20T03:44:38.764Z,16.53
2022-09-20T03:49:46.346Z,17.43
2022-09-20T03:54:53.963Z,24.77
2022-09-20T04:00:13.733Z,20.67
2022-09-20T04:05:18.348Z,31.53
2022-09-20T04:10:59.624Z,16.47
2022-09-20T04:16:10.527Z,18.43
2022-09-20T04:21:29.015Z,24.87
2022-09-20T04:26:32.789Z,18.43
2022-09-20T04:31:49.771Z,31.10
2022-09-20T04:37:06.113Z,27.17
2022-09-20T04:42:54.604Z,30.93
2022-09-20T04:48:23.018Z,39.57
2022-09-20T04:53:46.251Z,15.23
2022-09-20T04:59:07.809Z,27.13
2022-09-20T05:04:49.087Z,52.63
2022-09-20T05:10:28.748Z,19.77
2022-09-20T05:15:50.758Z,23.67
2022-09-20T05:20:57.311Z,20.67
2022-09-20T05:26:27.801Z,29.57
2022-09-20T05:31:38.896Z,51.27
2022-09-20T05:37:12.512Z,36.10
2022-09-20T05:42:43.917Z,23.37
2022-09-20T05:48:04.543Z,17.73
2022-09-20T05:53:34.800Z,17.87
2022-09-20T05:58:48.492Z,14.20
2022-09-20T06:04:22.704Z,24.90
2022-09-20T06:09:48.505Z,11.63
2022-09-20T06:15:12.053Z,11.50
2022-09-20T06:20:19.232Z,14.90
2022-09-20T06:25:32.321Z,8.70
2022-09-20T06:30:39.652Z,9.30
2022-09-20T06:36:25.761Z,13.07
2022-09-20T06:41:28.063Z,9.00
2022-09-20T06:46:34.337Z,9.90
2022-09-20T06:51:37.477Z,10.43
2022-09-20T06:56:39.123Z,13.20
2022-09-20T07:01:41.374Z,14.27
2022-09-20T07:06:43.029Z,16.03
2022-09-20T07:11:46.120Z,17.00
2022-09-20T07:16:47.782Z,9.40
2022-09-20T07:21:49.468Z,13.87
2022-09-20T07:27:01.442Z,12.87
2022-09-20T07:32:03.192Z,13.53
2022-09-20T07:37:05.546Z,16.50
2022-09-20T07:42:07.576Z,18.10
2022-09-20T07:47:10.479Z,14.93
2022-09-20T07:52:12.098Z,13.40
2022-09-20T07:57:13.770Z,15.83
2022-09-20T08:02:15.737Z,14.73
2022-09-20T08:07:17.538Z,16.97
2022-09-20T08:17:41.378Z,14.60
2022-09-20T08:22:43.359Z,12.90
2022-09-20T08:27:45.348Z,12.20
2022-09-20T08:32:47.024Z,10.50
2022-09-20T08:37:48.822Z,16.93
2022-09-20T08:42:50.467Z,11.27
2022-09-20T08:47:58.522Z,14.27
2022-09-20T08:53:04.883Z,11.90
2022-09-20T08:58:09.191Z,12.70
2022-09-20T09:03:12.155Z,10.20
2022-09-20T09:08:18.937Z,11.50
2022-09-20T09:13:30.992Z,11.47
2022-09-20T09:18:35.049Z,9.20
2022-09-20T09:23:41.661Z,13.30
2022-09-20T09:28:44.065Z,7.80
2022-09-20T09:33:47.343Z,10.33
2022-09-20T09:38:49.292Z,7.53
2022-09-20T09:44:22.572Z,6.17
2022-09-20T09:49:36.406Z,6.87
2022-09-20T09:54:39.536Z,10.60
2022-09-20T09:59:57.893Z,5.93
2022-09-20T10:05:25.164Z,5.27
2022-09-20T10:11:00.835Z,6.97
2022-09-20T10:16:46.547Z,4.63
2022-09-20T10:22:17.767Z,4.47
2022-09-20T10:27:28.696Z,4.20
2022-09-20T10:32:51.824Z,5.70
2022-09-20T10:38:08.416Z,4.03
2022-09-20T10:43:17.014Z,9.43
2022-09-20T10:48:32.396Z,2.17
2022-09-20T10:53:41.346Z,4.73
2022-09-20T10:59:04.216Z,3.63
2022-09-20T11:04:29.694Z,4.47
2022-09-20T11:09:35.056Z,4.30
2022-09-20T11:14:41.908Z,2.67
2022-09-20T11:20:07.257Z,2.07
2022-09-20T11:25:29.786Z,3.00
2022-09-20T11:30:32.164Z,2.00
2022-09-20T11:35:34.951Z,1.97
2022-09-20T11:40:43.120Z,1.53
2022-09-20T11:45:44.900Z,1.97
2022-09-20T11:51:05.392Z,1.73
2022-09-20T11:56:20.628Z,3.50
2022-09-20T12:01:28.260Z,1.87
2022-09-20T12:06:33.223Z,5.00
2022-09-20T12:11:36.177Z,2.43
2022-09-20T12:16:44.524Z,4.03
2022-09-20T12:22:15.925Z,2.40
2022-09-20T12:27:43.929Z,1.87
2022-09-20T12:32:47.496Z,2.30
2022-09-20T12:37:49.125Z,5.67
2022-09-20T12:42:56.712Z,3.83
2022-09-20T12:47:58.347Z,1.80
2022-09-20T12:53:04.190Z,4.23
2022-09-20T12:58:13.331Z,3.80
2022-09-20T13:03:14.767Z,4.97
2022-09-20T13:08:21.790Z,4.43
2022-09-20T13:13:33.660Z,2.00
2022-09-20T13:18:35.362Z,5.30
2022-09-20T13:23:55.350Z,2.80
2022-09-20T13:28:59.066Z,2.40
2022-09-20T13:34:22.121Z,4.43
2022-09-20T13:39:28.860Z,0.93
2022-09-20T13:44:33.483Z,2.00
2022-09-20T13:49:35.108Z,6.37
2022-09-20T13:54:36.720Z,3.23
2022-09-20T13:59:45.469Z,6.53
2022-09-20T14:04:47.062Z,22.23
2022-09-20T14:09:48.675Z,3.40
2022-09-20T14:14:50.868Z,17.87
2022-09-20T14:19:54.388Z,7.30
2022-09-20T14:24:58.285Z,7.13
2022-09-20T14:29:59.963Z,3.70
2022-09-20T14:35:03.597Z,6.57
2022-09-20T14:40:15.950Z,7.57
2022-09-20T14:45:23.403Z,9.33
2022-09-20T14:50:26.181Z,4.43
2022-09-20T14:55:36.470Z,6.23
2022-09-20T15:00:57.846Z,8.30
2022-09-20T15:05:59.521Z,12.53
2022-09-20T15:11:01.311Z,10.33
2022-09-20T15:16:03.030Z,8.87
2022-09-20T15:21:05.777Z,6.40
2022-09-20T15:26:07.533Z,9.57
2022-09-20T15:31:09.474Z,7.60
2022-09-20T15:36:11.398Z,6.40
2022-09-20T15:41:13.048Z,6.50
2022-09-20T15:46:17.593Z,5.63
2022-09-20T15:51:19.257Z,6.83
2022-09-20T15:56:27.757Z,2.67
2022-09-20T16:01:42.755Z,2.70
2022-09-20T16:06:45.541Z,7.30
2022-09-20T16:11:47.852Z,5.97
2022-09-20T16:16:49.526Z,11.20
2022-09-20T16:21:57.657Z,5.10
2022-09-20T16:27:03.582Z,6.23
2022-09-20T16:32:05.409Z,8.03
2022-09-20T16:37:11.709Z,2.67
2022-09-20T16:42:13.432Z,4.40
2022-09-20T16:47:22.031Z,8.00
2022-09-20T16:52:26.388Z,5.83
2022-09-20T16:57:28.799Z,5.90
2022-09-20T17:02:30.410Z,3.97
2022-09-20T17:07:33.645Z,7.10
2022-09-20T17:12:41.408Z,6.03
2022-09-20T17:17:43.034Z,4.60
2022-09-20T17:22:44.651Z,4.43
2022-09-20T17:27:47.855Z,11.10
2022-09-20T17:32:50.782Z,3.30
2022-09-20T17:37:52.378Z,2.70
2022-09-20T17:42:55.111Z,6.50
2022-09-20T17:47:57.495Z,8.37
2022-09-20T17:52:59.221Z,5.27
2022-09-20T17:58:01.045Z,8.63
2022-09-20T18:03:04.870Z,15.80
2022-09-20T18:08:06.718Z,13.90
2022-09-20T18:13:08.335Z,7.67
2022-09-20T18:18:09.952Z,6.40
2022-09-20T18:23:11.719Z,6.93
2022-09-20T18:28:13.326Z,3.67
2022-09-20T18:33:17.969Z,5.73
2022-09-20T18:38:20.768Z,5.10
2022-09-20T18:43:22.360Z,2.60
2022-09-20T18:48:32.155Z,3.10
2022-09-20T18:53:38.219Z,7.70
2022-09-20T18:58:40.038Z,8.20
2022-09-20T19:03:47.317Z,11.27
2022-09-20T19:09:00.291Z,7.80
2022-09-20T19:14:05.504Z,6.53
2022-09-20T19:19:22.404Z,6.57
2022-09-20T19:24:56.689Z,4.30
2022-09-20T19:29:58.564Z,5.70
2022-09-20T19:35:01.560Z,6.90
2022-09-20T19:40:26.105Z,6.27
2022-09-20T19:45:38.353Z,4.83
2022-09-20T19:50:42.103Z,3.53
2022-09-20T19:55:46.208Z,6.27
2022-09-20T20:00:47.973Z,2.43
2022-09-20T20:05:56.088Z,3.23
2022-09-20T20:11:03.126Z,4.57
2022-09-20T20:16:06.268Z,4.83
2022-09-20T20:21:13.230Z,12.03
2022-09-20T20:26:24.853Z,13.00
2022-09-20T20:31:26.529Z,6.63
2022-09-20T20:36:28.220Z,7.97
2022-09-20T20:41:31.586Z,6.90
2022-09-20T20:46:34.791Z,5.00
2022-09-20T20:51:36.490Z,3.37
2022-09-20T20:56:38.106Z,3.50
2022-09-20T21:01:44.982Z,7.07
2022-09-20T21:06:46.807Z,7.00
2022-09-20T21:11:48.520Z,7.47
2022-09-20T21:16:51.183Z,5.93
2022-09-20T21:21:52.854Z,3.20
2022-09-20T21:26:54.450Z,1.70
2022-09-20T21:31:56.037Z,3.57
2022-09-20T21:36:57.675Z,1.97
2022-09-20T21:41:59.628Z,1.60
2022-09-20T21:47:01.280Z,5.83
2022-09-20T21:52:03.513Z,1.63
2022-09-20T21:57:05.831Z,4.27
2022-09-20T22:02:07.546Z,4.40
2022-09-20T22:07:09.865Z,2.83
2022-09-20T22:12:11.468Z,1.60
2022-09-20T22:17:13.100Z,2.83
2022-09-20T22:22:15.031Z,4.07
2022-09-20T22:27:16.663Z,2.00
2022-09-20T22:32:18.276Z,3.60
2022-09-20T22:37:19.943Z,3.77
2022-09-20T22:42:21.574Z,2.77
2022-09-20T22:47:23.198Z,3.20
2022-09-20T22:52:24.833Z,3.70
2022-09-20T22:57:26.755Z,1.50
2022-09-20T23:02:28.381Z,7.60
2022-09-20T23:07:30.859Z,2.73
2022-09-20T23:12:32.464Z,2.27
2022-09-20T23:17:34.080Z,1.83
2022-09-20T23:22:35.705Z,1.67
2022-09-20T23:27:37.361Z,3.53
2022-09-20T23:32:38.980Z,3.00
2022-09-20T23:37:40.650Z,5.67
2022-09-20T23:42:42.285Z,3.60
2022-09-20T23:47:47.467Z,3.37
2022-09-20T23:52:49.092Z,2.83
2022-09-20T23:57:57.400Z,8.60
